Kezdőlap
METAR-TAF:

METAR-TAF

Repülőterek :

Tan-Tan, Marokkó

földrajzi szélesség: 28-26-54N, földrajzi hosszúság: 11-09-41W, magasság: 199 m

Jelenlegi meteorológiai megfigyelések

A jelentés 6 órával és 23 perccel ezelõtt készült, 18:00 UTC
Észak-északkeleti szél 23 kt
Hőmérséklet 19°C
Páratartalom 73%
Légköri nyomás 1015 hPa
Látótávolság: 8000 m
Szakadozott felhőzet 1600 lábon

METAR: GMAT 261800Z 03023KT 8000 BKN016 19/14 Q1015 NOSIG

Idő: 01:23 (00:23 UTC)


TAF: hiányzik

Meteorológiai megfigyelések és előrejelzések több, mint 4000 repülőtéren (METAR és TAF jelentéseket).

A térképen piros és sárga pontok jelzik az elérhető meteorológiai állomásokat.

Mozgassa az egeret a pont fölött, hogy megjelenjen az állomás neve.

Azután kattintson az időjárási megfigyelések és előrejelzések megtekintéséhez.

A térkép megváltoztatása: kattintson a fekete keresztel jelölt zöld gombra ráközelítéshez, a vonallal jelölt zöld gombra távolításhoz, vagy a zöld nyilakra a szomszédos térképek eléréséhez.


METAR-TAF: